Time;durP1;ratioP1;P1;durP2;ratioP2;P2;SDS_P1;SDS_P2;PMS_P1;PMS_P2;Temp;Humidity;BMP_temperature;BMP_pressure;BME280_temperature;BME280_humidity;BME280_pressure;Samples;Min_cycle;Max_cycle;Signal;HPM_P1;HPM_P2
2022/08/01 00:01:53;;;;;;;1.63;1.50;;;17.70;99.90;;;;;;5093639;28;20113;-75
2022/08/01 00:04:18;;;;;;;2.08;1.90;;;17.70;99.90;;;;;;5093474;28;20107;-74
2022/08/01 00:06:44;;;;;;;2.03;1.80;;;17.70;99.90;;;;;;5093458;28;20120;-74
2022/08/01 00:09:10;;;;;;;1.88;1.77;;;17.70;99.90;;;;;;5093561;28;20101;-74
2022/08/01 00:11:36;;;;;;;1.98;1.88;;;17.60;99.90;;;;;;5093385;28;20032;-75
2022/08/01 00:14:02;;;;;;;2.10;2.00;;;17.50;99.90;;;;;;5093749;28;20016;-74
2022/08/01 00:16:27;;;;;;;2.97;2.20;;;17.50;99.90;;;;;;5093383;28;20091;-74
2022/08/01 00:18:53;;;;;;;2.03;1.88;;;17.50;99.90;;;;;;5093079;28;20550;-74
2022/08/01 00:21:19;;;;;;;2.45;1.70;;;17.50;99.90;;;;;;5093172;28;20554;-74
2022/08/01 00:23:45;;;;;;;2.72;1.85;;;17.50;99.90;;;;;;5093194;28;20059;-75
2022/08/01 00:26:12;;;;;;;1.88;1.73;;;17.50;99.90;;;;;;5074950;28;20063;-75
2022/08/01 00:28:38;;;;;;;2.33;2.13;;;17.50;99.90;;;;;;5093273;28;20016;-74
2022/08/01 00:31:04;;;;;;;1.60;1.50;;;17.50;99.90;;;;;;5093068;28;20368;-74
2022/08/01 00:33:29;;;;;;;2.05;1.90;;;17.50;99.90;;;;;;5093203;28;20062;-74
2022/08/01 00:35:55;;;;;;;3.88;1.77;;;17.50;99.90;;;;;;5092953;28;20432;-74
2022/08/01 00:38:21;;;;;;;2.13;1.90;;;17.50;99.90;;;;;;5093124;28;20123;-74
2022/08/01 00:40:47;;;;;;;4.68;2.10;;;17.50;99.90;;;;;;5092955;28;20386;-74
2022/08/01 00:43:13;;;;;;;1.67;1.58;;;17.50;99.90;;;;;;5093037;28;20032;-74
2022/08/01 00:45:39;;;;;;;2.92;1.90;;;17.50;99.90;;;;;;5092339;28;20024;-75
2022/08/01 00:48:05;;;;;;;2.35;2.05;;;17.50;99.90;;;;;;5092685;28;20081;-74
2022/08/01 00:50:31;;;;;;;3.47;2.00;;;17.50;99.90;;;;;;5092950;28;20071;-74
2022/08/01 00:52:58;;;;;;;2.10;1.90;;;17.50;99.90;;;;;;5057811;28;20038;-74
2022/08/01 00:55:24;;;;;;;2.25;2.00;;;17.40;99.90;;;;;;5092827;28;20024;-74
2022/08/01 00:57:50;;;;;;;2.15;2.03;;;17.50;99.90;;;;;;5092660;28;20023;-73
2022/08/01 01:00:16;;;;;;;2.30;2.13;;;17.50;99.90;;;;;;5092655;28;20375;-74
2022/08/01 01:02:41;;;;;;;5.78;2.15;;;17.50;99.90;;;;;;5092660;28;20472;-73
2022/08/01 01:05:08;;;;;;;2.30;2.10;;;17.50;99.90;;;;;;5092461;28;20095;-74
2022/08/01 01:07:58;;;;;;;2.05;1.83;;;17.50;99.90;;;;;;5073913;28;20432;-73
2022/08/01 01:10:54;;;;;;;2.25;1.90;;;17.40;99.90;;;;;;5092450;28;20024;-73
2022/08/01 01:13:43;;;;;;;3.17;2.13;;;17.40;99.90;;;;;;5092375;28;20047;-73
2022/08/01 01:16:20;;;;;;;2.53;2.35;;;17.40;99.90;;;;;;5092268;28;20111;-73
2022/08/01 01:18:49;;;;;;;1.80;1.70;;;17.40;99.90;;;;;;5092025;28;20063;-74
2022/08/01 01:21:18;;;;;;;2.30;1.95;;;17.30;99.90;;;;;;5092479;28;20039;-74
2022/08/01 01:24:04;;;;;;;3.00;2.05;;;17.30;99.90;;;;;;5074164;28;20412;-75
2022/08/01 01:26:51;;;;;;;2.22;2.00;;;17.30;99.90;;;;;;5091787;28;20028;-74
2022/08/01 01:29:31;;;;;;;2.30;2.10;;;17.40;99.90;;;;;;5073998;28;20027;-74
2022/08/01 01:32:12;;;;;;;1.83;1.70;;;17.40;99.90;;;;;;5092119;28;20055;-73
2022/08/01 01:34:42;;;;;;;2.35;2.00;;;17.40;99.90;;;;;;5092138;28;20081;-73
2022/08/01 01:37:12;;;;;;;4.03;1.95;;;17.40;99.90;;;;;;5091973;28;20055;-73
2022/08/01 01:39:40;;;;;;;1.98;1.88;;;17.40;99.90;;;;;;5092061;28;20028;-74
2022/08/01 01:42:06;;;;;;;1.98;1.83;;;17.30;99.90;;;;;;5092021;28;20518;-73
2022/08/01 01:44:33;;;;;;;3.58;2.10;;;17.40;99.90;;;;;;5073909;28;20039;-74
2022/08/01 01:47:00;;;;;;;2.40;2.20;;;17.30;99.90;;;;;;5091997;28;20028;-74
2022/08/01 01:49:27;;;;;;;2.40;2.20;;;17.30;99.90;;;;;;5091863;28;20099;-74
2022/08/01 01:51:56;;;;;;;3.03;2.08;;;17.30;99.90;;;;;;5091688;28;20359;-74
2022/08/01 01:54:25;;;;;;;5.25;2.00;;;17.30;99.90;;;;;;5091974;28;20058;-74
2022/08/01 01:56:51;;;;;;;5.82;2.13;;;17.40;99.90;;;;;;5091477;28;20103;-73
2022/08/01 01:59:24;;;;;;;1.92;1.83;;;17.40;99.90;;;;;;5091745;28;20547;-73
2022/08/01 02:01:52;;;;;;;2.33;2.13;;;17.40;99.90;;;;;;5091742;28;20114;-75
2022/08/01 02:04:19;;;;;;;5.28;2.08;;;17.40;99.90;;;;;;5091902;28;20076;-73
2022/08/01 02:06:46;;;;;;;1.85;1.75;;;17.40;99.90;;;;;;5091635;28;20035;-73
2022/08/01 02:09:17;;;;;;;2.38;2.17;;;17.40;99.90;;;;;;5091601;28;20142;-74
2022/08/01 02:11:45;;;;;;;2.45;1.98;;;17.40;99.90;;;;;;5091535;28;20032;-74
2022/08/01 02:14:12;;;;;;;2.63;2.42;;;17.50;99.90;;;;;;5091852;28;20024;-74
2022/08/01 02:16:41;;;;;;;2.45;2.22;;;17.50;99.90;;;;;;5073800;28;20432;-73
2022/08/01 02:19:07;;;;;;;2.05;1.77;;;17.50;99.90;;;;;;5092185;28;20036;-73
2022/08/01 02:21:47;;;;;;;4.28;1.98;;;17.40;99.90;;;;;;5091959;28;20034;-73
2022/08/01 02:24:37;;;;;;;2.30;2.10;;;17.40;99.90;;;;;;5091602;28;20095;-74
2022/08/01 02:27:12;;;;;;;2.30;2.10;;;17.40;99.90;;;;;;5073515;28;20452;-73
2022/08/01 02:29:50;;;;;;;2.30;2.10;;;17.40;99.90;;;;;;5091502;28;20024;-75
2022/08/01 02:32:25;;;;;;;2.15;1.95;;;17.30;99.90;;;;;;5091666;28;20034;-75
2022/08/01 02:34:53;;;;;;;5.75;2.20;;;17.30;99.90;;;;;;5091554;28;20026;-74
2022/08/01 02:37:20;;;;;;;2.92;2.28;;;17.30;99.90;;;;;;5091314;28;20020;-74
2022/08/01 02:39:49;;;;;;;2.55;2.33;;;17.30;99.90;;;;;;5091389;28;20024;-73
2022/08/01 02:42:18;;;;;;;4.85;2.35;;;17.30;99.90;;;;;;5091411;28;20077;-75
2022/08/01 02:44:46;;;;;;;3.05;2.08;;;17.40;99.90;;;;;;5091328;28;20063;-74
2022/08/01 02:47:12;;;;;;;5.70;2.38;;;17.40;99.90;;;;;;5091298;28;20027;-73
2022/08/01 02:49:46;;;;;;;5.35;2.50;;;17.40;99.90;;;;;;5091332;28;20483;-74
2022/08/01 02:52:17;;;;;;;2.47;2.28;;;17.40;99.90;;;;;;5091117;28;20118;-73
2022/08/01 02:54:48;;;;;;;2.13;2.00;;;17.40;99.90;;;;;;5073162;28;20442;-73
2022/08/01 02:57:15;;;;;;;2.50;2.30;;;17.40;99.90;;;;;;5091121;28;20024;-73
2022/08/01 02:59:42;;;;;;;2.80;2.13;;;17.40;99.90;;;;;;5091386;28;20016;-74
2022/08/01 03:02:09;;;;;;;3.05;2.15;;;17.40;99.90;;;;;;5091156;28;20038;-74
2022/08/01 03:04:37;;;;;;;3.35;2.58;;;17.50;99.90;;;;;;5091159;28;20016;-74
2022/08/01 03:07:05;;;;;;;1.80;1.70;;;17.50;99.90;;;;;;5091070;28;20031;-74
2022/08/01 03:09:36;;;;;;;2.10;1.90;;;17.50;99.90;;;;;;5093786;28;20156;-74
2022/08/01 03:12:04;;;;;;;2.50;2.30;;;17.50;99.90;;;;;;5076530;28;20039;-73
2022/08/01 03:14:33;;;;;;;2.83;1.90;;;17.60;99.90;;;;;;5094628;28;20340;-74
2022/08/01 03:17:00;;;;;;;2.30;2.10;;;17.60;99.90;;;;;;5076239;28;20036;-73
2022/08/01 03:19:28;;;;;;;3.20;2.17;;;17.60;99.90;;;;;;5094641;28;20085;-74
2022/08/01 03:21:58;;;;;;;3.15;2.10;;;17.70;99.90;;;;;;5094637;28;20027;-75
2022/08/01 03:24:25;;;;;;;2.67;2.30;;;17.70;99.90;;;;;;5094580;28;20020;-73
2022/08/01 03:26:53;;;;;;;2.60;2.05;;;17.70;99.90;;;;;;5094464;28;20020;-75
2022/08/01 03:29:24;;;;;;;2.42;2.13;;;17.70;99.90;;;;;;5094204;28;20153;-74
2022/08/01 03:31:51;;;;;;;2.10;1.92;;;17.70;99.90;;;;;;5094286;28;20455;-73
2022/08/01 03:34:17;;;;;;;3.10;2.00;;;17.70;99.90;;;;;;5094263;28;20035;-75
2022/08/01 03:36:59;;;;;;;2.53;2.33;;;17.60;99.90;;;;;;5093830;28;20024;-73
2022/08/01 03:39:31;;;;;;;2.53;2.33;;;17.60;99.90;;;;;;5093867;28;20494;-74
2022/08/01 03:42:01;;;;;;;2.30;2.10;;;17.50;99.90;;;;;;5076042;28;20370;-73
2022/08/01 03:44:31;;;;;;;2.63;2.40;;;17.60;99.90;;;;;;5093939;28;20026;-75
2022/08/01 03:47:01;;;;;;;2.53;2.30;;;17.60;99.90;;;;;;5093690;28;20022;-74
2022/08/01 03:49:31;;;;;;;2.85;2.28;;;17.50;99.90;;;;;;5093674;28;20032;-74
2022/08/01 03:52:00;;;;;;;2.08;1.98;;;17.60;99.90;;;;;;5075801;28;20028;-73
2022/08/01 03:54:33;;;;;;;2.38;2.17;;;17.60;99.90;;;;;;5076364;28;20032;-74
2022/08/01 03:57:00;;;;;;;2.53;2.25;;;17.60;99.90;;;;;;5094109;28;20077;-73
2022/08/01 03:59:26;;;;;;;2.22;2.08;;;17.60;99.90;;;;;;5094243;28;20356;-75
2022/08/01 04:01:53;;;;;;;4.45;2.47;;;17.60;99.90;;;;;;5094018;28;20012;-73
2022/08/01 04:04:19;;;;;;;2.38;2.17;;;17.60;99.90;;;;;;5094161;28;20095;-74
2022/08/01 04:06:45;;;;;;;3.60;2.47;;;17.60;99.90;;;;;;5094205;28;20432;-74
2022/08/01 04:09:11;;;;;;;2.42;2.22;;;17.60;99.90;;;;;;5094079;28;20020;-74
2022/08/01 04:11:37;;;;;;;2.72;2.10;;;17.70;99.90;;;;;;5093995;28;20475;-74
2022/08/01 04:14:03;;;;;;;4.82;2.30;;;17.70;99.90;;;;;;5093818;28;20078;-73
2022/08/01 04:16:29;;;;;;;2.05;1.85;;;17.70;99.90;;;;;;5093529;28;20024;-73
2022/08/01 04:18:55;;;;;;;3.15;1.60;;;17.70;99.90;;;;;;5093467;28;20067;-75
2022/08/01 04:21:24;;;;;;;2.10;1.90;;;17.80;99.90;;;;;;5092369;28;20111;-74
2022/08/01 04:23:51;;;;;;;2.05;1.85;;;17.80;99.90;;;;;;5075204;28;20053;-74
2022/08/01 04:26:19;;;;;;;4.85;2.50;;;17.80;99.90;;;;;;5093447;28;20031;-73
2022/08/01 04:28:46;;;;;;;3.08;2.10;;;17.80;99.90;;;;;;5093165;28;20016;-73
2022/08/01 04:31:13;;;;;;;2.30;1.80;;;17.80;99.90;;;;;;5093147;28;20086;-74
2022/08/01 04:33:45;;;;;;;3.20;2.35;;;17.90;99.90;;;;;;5093254;28;20099;-74
2022/08/01 04:36:14;;;;;;;2.90;2.70;;;17.90;99.90;;;;;;5093024;28;20020;-74
2022/08/01 04:38:42;;;;;;;5.13;2.33;;;17.80;99.90;;;;;;5093342;28;20024;-74
2022/08/01 04:41:11;;;;;;;3.25;2.20;;;17.70;99.90;;;;;;5074761;28;21267;-73
2022/08/01 04:43:37;;;;;;;2.97;2.35;;;17.80;99.90;;;;;;5093011;28;20432;-73
2022/08/01 04:46:05;;;;;;;2.97;2.30;;;17.80;99.90;;;;;;5092965;28;20027;-75
2022/08/01 04:48:33;;;;;;;4.53;2.55;;;17.90;99.90;;;;;;5092892;28;20020;-75
2022/08/01 04:51:00;;;;;;;2.00;1.90;;;17.90;99.90;;;;;;5074157;28;20036;-77
2022/08/01 04:53:26;;;;;;;3.00;2.25;;;18.10;99.90;;;;;;5092988;28;20031;-79
2022/08/01 04:55:52;;;;;;;2.45;2.25;;;18.60;99.90;;;;;;5092604;28;20046;-77
2022/08/01 04:58:18;;;;;;;2.03;1.92;;;19.00;99.90;;;;;;5074315;28;20055;-78
2022/08/01 05:00:43;;;;;;;4.00;2.40;;;19.40;99.90;;;;;;5098214;28;20016;-78
2022/08/01 05:03:09;;;;;;;3.80;1.90;;;19.60;99.90;;;;;;5074265;28;20471;-78
2022/08/01 05:05:35;;;;;;;3.00;2.10;;;19.80;99.90;;;;;;5092497;28;20042;-77
2022/08/01 05:08:01;;;;;;;2.95;2.55;;;19.80;99.90;;;;;;5092461;28;20522;-78
2022/08/01 05:10:27;;;;;;;2.47;2.17;;;19.90;99.90;;;;;;5092359;28;20032;-78
2022/08/01 05:12:53;;;;;;;4.28;3.20;;;19.90;99.90;;;;;;5092755;28;20479;-79
2022/08/01 05:15:19;;;;;;;2.63;2.42;;;20.00;99.90;;;;;;5074059;28;20111;-78
2022/08/01 05:17:44;;;;;;;6.03;2.38;;;20.00;99.90;;;;;;5074033;28;20510;-80
2022/08/01 05:20:11;;;;;;;2.72;2.53;;;20.00;99.90;;;;;;5092415;28;20024;-78
2022/08/01 05:22:37;;;;;;;2.63;2.42;;;20.00;99.90;;;;;;5092294;28;20028;-78
2022/08/01 05:25:07;;;;;;;3.05;2.13;;;20.10;99.90;;;;;;5092501;28;20020;-78
2022/08/01 05:27:38;;;;;;;2.67;2.45;;;20.10;99.90;;;;;;5073724;28;20103;-79
2022/08/01 05:30:04;;;;;;;2.63;2.42;;;20.10;99.90;;;;;;5073921;28;20490;-79
2022/08/01 05:32:32;;;;;;;6.32;2.50;;;20.20;99.90;;;;;;5092021;28;20032;-78
2022/08/01 05:34:57;;;;;;;2.78;2.50;;;20.20;99.90;;;;;;5092211;28;20048;-79
2022/08/01 05:37:23;;;;;;;3.15;2.53;;;20.10;99.90;;;;;;5092704;28;20079;-78
2022/08/01 05:39:48;;;;;;;2.67;2.10;;;20.20;99.90;;;;;;5073822;28;20024;-77
2022/08/01 05:42:14;;;;;;;2.85;2.65;;;20.40;99.90;;;;;;5074014;28;20073;-76
2022/08/01 05:44:40;;;;;;;2.10;1.90;;;20.60;99.90;;;;;;5092080;28;20020;-78
2022/08/01 05:47:05;;;;;;;2.28;2.08;;;20.80;99.90;;;;;;5092200;28;20099;-79
2022/08/01 05:49:31;;;;;;;2.92;2.60;;;21.00;99.90;;;;;;5092170;28;20352;-78
2022/08/01 05:51:57;;;;;;;2.85;2.15;;;21.00;99.90;;;;;;5092249;28;20128;-77
2022/08/01 05:54:22;;;;;;;1.83;1.73;;;21.10;99.90;;;;;;5091752;28;20028;-77
2022/08/01 05:56:48;;;;;;;2.13;1.88;;;21.10;99.90;;;;;;5073207;28;20047;-78
2022/08/01 05:59:14;;;;;;;2.05;1.90;;;21.10;99.90;;;;;;5091623;28;20031;-79
2022/08/01 06:01:39;;;;;;;1.95;1.85;;;21.20;99.90;;;;;;5073748;28;20024;-79
2022/08/01 06:04:05;;;;;;;2.42;1.90;;;21.30;99.90;;;;;;5073576;28;20023;-79
2022/08/01 06:06:31;;;;;;;4.35;2.25;;;21.40;99.90;;;;;;5073571;28;20475;-78
2022/08/01 06:08:56;;;;;;;1.75;1.65;;;21.50;99.90;;;;;;5092031;28;20363;-77
2022/08/01 06:11:22;;;;;;;1.88;1.77;;;21.50;99.90;;;;;;5073703;28;20032;-79
2022/08/01 06:13:48;;;;;;;2.33;2.00;;;21.40;99.90;;;;;;5091388;28;20031;-77
2022/08/01 06:16:13;;;;;;;2.53;1.55;;;21.40;99.90;;;;;;5091466;28;20103;-77
2022/08/01 06:18:39;;;;;;;2.30;2.10;;;21.40;99.90;;;;;;5073351;28;20168;-79
2022/08/01 06:21:05;;;;;;;2.28;1.80;;;21.40;99.90;;;;;;5073522;28;20490;-77
2022/08/01 06:23:31;;;;;;;3.72;1.70;;;21.40;99.90;;;;;;5073576;28;20020;-78
2022/08/01 06:25:57;;;;;;;1.45;1.35;;;21.40;99.90;;;;;;5091947;28;20093;-77
2022/08/01 06:28:23;;;;;;;2.75;1.77;;;21.40;99.90;;;;;;5073457;28;20520;-79
2022/08/01 06:30:49;;;;;;;3.47;1.70;;;21.40;99.90;;;;;;5091468;28;20055;-77
2022/08/01 06:33:15;;;;;;;2.60;1.88;;;21.40;99.90;;;;;;5073585;28;20081;-78
2022/08/01 06:35:41;;;;;;;2.20;2.00;;;21.40;99.90;;;;;;5073475;28;20077;-76
2022/08/01 06:38:07;;;;;;;3.13;1.83;;;21.50;99.90;;;;;;5091646;28;20397;-76
2022/08/01 06:40:33;;;;;;;1.58;1.48;;;21.50;99.70;;;;;;5073417;28;20177;-79
2022/08/01 06:42:58;;;;;;;6.40;2.42;;;21.50;99.70;;;;;;5065967;28;20073;-77
2022/08/01 06:45:26;;;;;;;4.47;1.35;;;21.50;99.50;;;;;;5075165;28;20496;-77
2022/08/01 06:47:52;;;;;;;3.42;2.00;;;21.50;99.30;;;;;;5056961;28;20479;-77
2022/08/01 06:50:18;;;;;;;4.03;1.83;;;21.50;99.50;;;;;;5056882;28;20107;-79
2022/08/01 06:52:44;;;;;;;2.13;1.60;;;21.50;99.90;;;;;;5056575;28;20503;-79
2022/08/01 06:55:09;;;;;;;4.03;1.50;;;21.40;99.90;;;;;;5056809;28;20062;-77
2022/08/01 06:57:35;;;;;;;1.90;1.70;;;21.40;99.90;;;;;;5057159;28;20036;-78
2022/08/01 07:00:07;;;;;;;6.05;1.30;;;21.40;99.90;;;;;;5074788;28;20031;-79
2022/08/01 07:02:32;;;;;;;5.55;1.70;;;21.40;99.90;;;;;;5056899;28;20164;-79
2022/08/01 07:05:00;;;;;;;2.35;1.75;;;21.50;99.90;;;;;;5074926;28;20066;-78
2022/08/01 07:07:26;;;;;;;2.30;1.73;;;21.60;99.90;;;;;;5056732;28;20040;-80
2022/08/01 07:09:52;;;;;;;1.83;1.73;;;21.60;99.90;;;;;;5056829;28;20028;-78
2022/08/01 07:12:18;;;;;;;5.93;1.63;;;21.50;99.90;;;;;;5074834;28;20047;-78
2022/08/01 07:14:43;;;;;;;3.92;2.05;;;21.50;99.90;;;;;;5074145;28;20020;-77
2022/08/01 07:17:09;;;;;;;5.60;1.88;;;21.60;99.90;;;;;;5074367;28;20028;-78
2022/08/01 07:19:35;;;;;;;2.72;1.65;;;21.60;99.90;;;;;;5089724;28;20401;-79
2022/08/01 07:22:00;;;;;;;3.60;3.03;;;21.70;99.90;;;;;;5094624;28;20028;-78
2022/08/01 07:24:26;;;;;;;3.15;2.85;;;21.80;99.90;;;;;;5094555;28;20078;-79
2022/08/01 07:26:53;;;;;;;5.43;2.90;;;21.90;99.90;;;;;;5094754;28;20089;-76
2022/08/01 07:29:20;;;;;;;3.45;2.03;;;22.00;99.90;;;;;;5094650;28;20026;-75
2022/08/01 07:31:46;;;;;;;2.38;2.10;;;22.00;99.90;;;;;;5094515;28;20036;-76
2022/08/01 07:34:11;;;;;;;4.32;1.85;;;22.00;99.90;;;;;;5094363;28;20147;-76
2022/08/01 07:36:37;;;;;;;4.25;1.98;;;22.10;99.90;;;;;;5092853;28;20017;-77
2022/08/01 07:39:03;;;;;;;2.10;2.00;;;22.20;99.90;;;;;;5094180;28;20061;-78
2022/08/01 07:41:28;;;;;;;5.10;2.70;;;22.20;99.90;;;;;;5094666;28;20024;-74
2022/08/01 07:43:54;;;;;;;2.47;2.15;;;22.30;99.90;;;;;;5094334;28;20035;-77
2022/08/01 07:46:19;;;;;;;3.20;2.47;;;22.30;99.90;;;;;;5094333;28;20024;-78
2022/08/01 07:48:45;;;;;;;1.75;1.38;;;22.50;99.90;;;;;;5094318;28;20382;-76
2022/08/01 07:51:11;;;;;;;3.33;1.65;;;22.70;99.70;;;;;;5094006;28;20378;-75
2022/08/01 07:53:37;;;;;;;1.83;1.73;;;22.80;99.50;;;;;;5094268;28;20024;-79
2022/08/01 07:56:05;;;;;;;2.42;2.03;;;22.90;98.90;;;;;;5093894;28;20028;-78
2022/08/01 07:58:31;;;;;;;4.40;2.55;;;23.00;98.30;;;;;;5094063;28;20016;-75
2022/08/01 08:00:57;;;;;;;3.63;2.15;;;23.10;98.20;;;;;;5094141;28;20026;-75
2022/08/01 08:03:23;;;;;;;2.40;1.80;;;23.10;98.20;;;;;;5094153;28;20028;-74
2022/08/01 08:05:48;;;;;;;2.40;1.45;;;23.20;98.30;;;;;;5075768;28;20051;-74
2022/08/01 08:08:17;;;;;;;5.53;1.80;;;23.20;98.90;;;;;;5093848;28;20144;-77
2022/08/01 08:10:43;;;;;;;3.15;2.47;;;23.30;99.90;;;;;;5093802;28;20349;-75
2022/08/01 08:13:08;;;;;;;2.92;2.20;;;23.40;99.20;;;;;;5093875;28;20101;-74
2022/08/01 08:15:34;;;;;;;2.22;2.03;;;23.40;99.00;;;;;;5093924;28;20460;-75
2022/08/01 08:17:59;;;;;;;2.55;2.13;;;23.50;98.40;;;;;;5093689;28;20044;-72
2022/08/01 08:20:26;;;;;;;2.10;1.75;;;23.60;98.00;;;;;;5093639;28;20119;-74
2022/08/01 08:22:53;;;;;;;2.20;2.10;;;23.70;97.80;;;;;;5075857;28;20030;-72
2022/08/01 08:25:19;;;;;;;4.07;2.40;;;23.90;97.90;;;;;;5093998;28;20499;-76
2022/08/01 08:27:45;;;;;;;4.15;2.65;;;24.00;98.30;;;;;;5093617;28;20112;-74
2022/08/01 08:30:12;;;;;;;4.05;2.20;;;24.10;99.10;;;;;;5093443;28;20032;-76
2022/08/01 08:32:38;;;;;;;2.50;2.30;;;24.20;98.60;;;;;;5093262;28;20083;-75
2022/08/01 08:35:05;;;;;;;2.65;2.30;;;24.30;98.20;;;;;;5093499;28;20012;-74
2022/08/01 08:37:31;;;;;;;2.33;2.13;;;24.40;97.90;;;;;;5093090;28;20444;-73
2022/08/01 08:39:57;;;;;;;2.85;2.10;;;24.50;97.80;;;;;;5093192;28;20024;-76
2022/08/01 08:42:23;;;;;;;2.00;1.75;;;24.70;97.50;;;;;;5074707;28;20016;-76
2022/08/01 08:44:48;;;;;;;2.72;2.38;;;24.80;98.20;;;;;;5093225;28;20032;-76
2022/08/01 08:47:15;;;;;;;2.33;2.10;;;24.90;98.10;;;;;;5093050;28;20020;-75
2022/08/01 08:49:43;;;;;;;1.90;1.80;;;25.00;97.80;;;;;;5092612;28;20471;-77
2022/08/01 08:52:09;;;;;;;3.00;1.83;;;25.10;97.80;;;;;;5092950;28;20059;-75
2022/08/01 08:54:40;;;;;;;2.70;2.42;;;25.30;98.20;;;;;;5092649;28;20035;-78
2022/08/01 08:57:06;;;;;;;3.25;2.08;;;25.50;97.40;;;;;;5092796;28;20440;-78
2022/08/01 08:59:32;;;;;;;4.03;2.38;;;25.70;96.30;;;;;;5092655;28;20482;-79
2022/08/01 09:01:59;;;;;;;3.95;1.77;;;25.80;94.70;;;;;;5074747;28;20024;-79
2022/08/01 09:04:26;;;;;;;2.47;1.80;;;25.80;94.20;;;;;;5074589;28;20020;-79
2022/08/01 09:06:52;;;;;;;2.75;1.60;;;25.90;93.80;;;;;;5092505;28;20024;-78
2022/08/01 09:09:18;;;;;;;2.38;1.83;;;26.00;93.30;;;;;;5093047;28;20379;-79
2022/08/01 09:11:44;;;;;;;3.55;1.83;;;26.10;92.50;;;;;;5092710;28;20035;-78
2022/08/01 09:14:22;;;;;;;2.05;1.50;;;26.20;92.30;;;;;;5092549;28;20028;-80
2022/08/01 09:16:58;;;;;;;5.03;1.85;;;26.20;90.70;;;;;;5092582;28;20054;-75
2022/08/01 09:19:24;;;;;;;1.38;1.20;;;26.30;90.10;;;;;;5092407;28;20127;-75
2022/08/01 09:21:58;;;;;;;1.65;1.15;;;26.40;89.40;;;;;;5074451;28;20089;-74
2022/08/01 09:24:26;;;;;;;1.35;1.25;;;26.50;89.20;;;;;;5092409;28;20024;-75
2022/08/01 09:26:52;;;;;;;2.35;1.20;;;26.60;88.10;;;;;;5092546;28;20104;-75
2022/08/01 09:29:38;;;;;;;1.38;1.25;;;26.50;88.80;;;;;;5092301;28;20044;-76
2022/08/01 09:32:07;;;;;;;1.38;1.27;;;26.60;87.10;;;;;;5092128;28;20038;-76
2022/08/01 09:34:35;;;;;;;1.65;1.20;;;26.60;87.60;;;;;;5092286;28;20028;-76
2022/08/01 09:37:02;;;;;;;1.73;1.20;;;26.50;86.70;;;;;;5092166;28;20479;-76
2022/08/01 09:39:39;;;;;;;1.95;1.10;;;26.50;86.90;;;;;;5092144;28;20028;-74
2022/08/01 09:42:25;;;;;;;0.90;0.90;;;26.50;84.90;;;;;;5092177;28;20024;-75
2022/08/01 09:44:52;;;;;;;1.70;1.20;;;26.50;81.90;;;;;;5091963;28;20024;-75
2022/08/01 09:47:20;;;;;;;1.17;0.93;;;26.50;82.40;;;;;;5092082;28;20024;-75
2022/08/01 09:49:56;;;;;;;1.13;1.05;;;26.50;80.10;;;;;;5091946;28;20032;-75
2022/08/01 09:52:27;;;;;;;2.30;1.08;;;26.60;80.90;;;;;;5073842;28;20036;-76
2022/08/01 09:54:54;;;;;;;1.20;1.10;;;26.50;80.20;;;;;;5091918;28;20043;-78
2022/08/01 09:57:21;;;;;;;1.35;1.08;;;26.60;79.00;;;;;;5082385;28;20379;-79
2022/08/01 09:59:50;;;;;;;0.77;0.77;;;26.70;81.60;;;;;;5047560;28;20016;-80
2022/08/01 10:02:31;;;;;;;0.98;0.90;;;26.80;78.80;;;;;;5073494;28;20073;-79
2022/08/01 10:04:58;;;;;;;1.10;0.90;;;26.90;80.30;;;;;;5091965;28;20020;-79
2022/08/01 10:07:23;;;;;;;0.95;0.95;;;27.20;80.40;;;;;;5073862;28;20020;-79
2022/08/01 10:09:49;;;;;;;1.55;0.82;;;27.50;81.80;;;;;;5092107;28;20898;-81
2022/08/01 10:12:19;;;;;;;1.13;1.00;;;27.90;78.10;;;;;;5091890;28;20078;-79
2022/08/01 10:14:49;;;;;;;1.73;1.02;;;28.40;90.50;;;;;;5091755;28;20174;-80
2022/08/01 10:17:16;;;;;;;1.40;1.00;;;28.20;90.00;;;;;;5092049;28;20020;-79
2022/08/01 10:19:43;;;;;;;0.95;0.95;;;28.20;88.70;;;;;;5076825;28;20043;-80
2022/08/01 10:22:10;;;;;;;1.52;1.10;;;28.20;88.90;;;;;;5095941;28;20012;-78
2022/08/01 10:24:40;;;;;;;1.35;1.20;;;28.20;87.70;;;;;;5095960;28;20153;-79
2022/08/01 10:27:10;;;;;;;3.13;1.30;;;28.20;88.30;;;;;;5096195;28;20043;-79
2022/08/01 10:29:40;;;;;;;1.30;1.20;;;28.30;88.80;;;;;;5095815;28;20020;-80
2022/08/01 10:32:08;;;;;;;1.98;1.83;;;28.50;92.90;;;;;;5077639;28;20047;-79
2022/08/01 10:34:35;;;;;;;1.05;1.02;;;28.60;76.20;;;;;;5077336;28;20052;-78
2022/08/01 10:37:02;;;;;;;2.35;1.45;;;28.60;76.00;;;;;;5095552;28;20024;-82
2022/08/01 10:39:29;;;;;;;1.02;1.02;;;28.60;74.80;;;;;;5077466;28;20024;-79
2022/08/01 10:41:55;;;;;;;0.93;0.90;;;28.60;75.50;;;;;;5095756;28;20528;-81
2022/08/01 10:44:25;;;;;;;1.20;1.20;;;28.70;75.40;;;;;;5095765;28;20028;-79
2022/08/01 10:46:56;;;;;;;3.60;0.85;;;28.80;74.50;;;;;;5095470;28;20028;-80
2022/08/01 10:49:24;;;;;;;1.08;0.88;;;28.90;73.90;;;;;;5095618;28;20024;-79
2022/08/01 10:51:50;;;;;;;0.98;0.90;;;28.80;73.70;;;;;;5095292;28;20028;-80
2022/08/01 10:54:15;;;;;;;0.98;0.98;;;28.70;74.60;;;;;;5095290;28;20031;-79
2022/08/01 10:56:46;;;;;;;3.47;0.88;;;28.50;73.30;;;;;;5095276;28;20024;-79
2022/08/01 10:59:21;;;;;;;2.72;1.10;;;28.50;73.20;;;;;;5095519;28;20130;-80
2022/08/01 11:02:02;;;;;;;1.40;1.10;;;28.50;74.60;;;;;;5077326;28;20081;-80
2022/08/01 11:04:40;;;;;;;8.85;1.55;;;28.90;77.50;;;;;;5095278;28;20519;-80
2022/08/01 11:07:18;;;;;;;2.35;0.82;;;29.20;71.40;;;;;;5094939;28;20065;-79
2022/08/01 11:10:00;;;;;;;2.45;0.82;;;29.40;72.40;;;;;;5094847;28;20023;-79
2022/08/01 11:12:39;;;;;;;1.42;1.08;;;29.40;71.80;;;;;;5094473;28;20036;-80
2022/08/01 11:15:05;;;;;;;1.25;1.05;;;29.60;88.80;;;;;;5095093;28;20024;-79
2022/08/01 11:17:37;;;;;;;0.80;0.80;;;29.70;70.90;;;;;;5095056;28;20034;-80
2022/08/01 11:20:32;;;;;;;0.80;0.80;;;29.80;66.00;;;;;;5094406;28;20066;-80
2022/08/01 11:23:01;;;;;;;1.48;1.10;;;29.90;67.70;;;;;;5089769;28;20028;-78
2022/08/01 11:25:36;;;;;;;0.52;0.47;;;30.20;66.90;;;;;;5094654;28;20517;-80
2022/08/01 11:28:13;;;;;;;5.97;0.80;;;30.30;64.10;;;;;;5094577;28;20024;-79
2022/08/01 11:30:40;;;;;;;2.72;0.77;;;30.40;64.80;;;;;;5094462;28;20046;-80
2022/08/01 11:33:06;;;;;;;1.58;0.93;;;30.30;62.60;;;;;;5095145;28;20031;-80
2022/08/01 11:35:32;;;;;;;0.75;0.75;;;30.20;62.80;;;;;;5094705;28;20016;-80
2022/08/01 11:38:26;;;;;;;0.98;0.63;;;30.00;61.80;;;;;;5094488;28;20100;-80
2022/08/01 11:41:11;;;;;;;0.50;0.50;;;29.80;61.00;;;;;;5094587;28;20016;-80
2022/08/01 11:44:04;;;;;;;1.98;0.70;;;29.90;61.70;;;;;;5094353;28;20081;-81
2022/08/01 11:47:06;;;;;;;1.17;0.50;;;30.10;60.50;;;;;;5076974;28;20047;-80
2022/08/01 11:49:45;;;;;;;0.75;0.52;;;30.20;59.60;;;;;;5094350;28;20027;-79
2022/08/01 11:52:19;;;;;;;1.38;0.57;;;30.30;60.00;;;;;;5094660;28;20032;-78
2022/08/01 11:54:51;;;;;;;0.63;0.63;;;30.40;59.30;;;;;;5094346;28;20020;-79
2022/08/01 11:57:22;;;;;;;2.42;0.93;;;30.60;58.90;;;;;;5094052;28;20024;-79
2022/08/01 11:59:53;;;;;;;0.57;0.50;;;31.00;58.30;;;;;;5094092;28;20024;-79
2022/08/01 12:02:31;;;;;;;0.95;0.85;;;31.10;56.60;;;;;;5094214;28;20024;-78
2022/08/01 12:05:07;;;;;;;1.67;0.77;;;31.20;55.90;;;;;;5094322;28;20020;-79
2022/08/01 12:07:35;;;;;;;1.15;0.70;;;31.20;54.70;;;;;;5093763;28;20532;-79
2022/08/01 12:10:03;;;;;;;0.88;0.77;;;31.20;55.80;;;;;;5093655;28;20024;-77
2022/08/01 12:12:30;;;;;;;3.47;0.70;;;31.40;56.40;;;;;;5093704;28;20032;-79
2022/08/01 12:15:04;;;;;;;0.70;0.68;;;31.30;55.70;;;;;;5075761;28;20103;-79
2022/08/01 12:17:46;;;;;;;1.20;0.68;;;31.20;56.00;;;;;;5093759;28;20016;-78
2022/08/01 12:20:15;;;;;;;1.98;0.60;;;31.30;54.80;;;;;;5093965;28;20032;-78
2022/08/01 12:22:41;;;;;;;1.58;0.75;;;31.20;55.30;;;;;;5093835;28;20106;-79
2022/08/01 12:25:09;;;;;;;0.75;0.60;;;31.10;56.60;;;;;;5093607;28;20498;-79
2022/08/01 12:27:35;;;;;;;3.47;0.52;;;31.00;56.00;;;;;;5093186;28;20032;-79
2022/08/01 12:30:04;;;;;;;1.05;0.80;;;30.60;56.10;;;;;;5075407;28;20032;-79
2022/08/01 12:32:35;;;;;;;1.10;0.93;;;30.30;57.50;;;;;;5093388;28;20124;-79
2022/08/01 12:35:03;;;;;;;1.73;0.80;;;30.20;59.40;;;;;;5093362;28;20404;-81
2022/08/01 12:37:28;;;;;;;1.02;0.82;;;30.00;60.20;;;;;;5093554;28;20455;-80
2022/08/01 12:39:55;;;;;;;0.85;0.85;;;29.80;61.40;;;;;;5092940;28;20046;-80
2022/08/01 12:42:21;;;;;;;1.42;1.02;;;29.60;63.00;;;;;;5092369;28;20040;-80
2022/08/01 12:44:50;;;;;;;1.27;0.70;;;29.60;65.60;;;;;;5075016;28;20028;-78
2022/08/01 12:47:17;;;;;;;2.28;1.20;;;29.70;65.90;;;;;;5093037;28;20024;-79
2022/08/01 12:49:44;;;;;;;1.08;0.60;;;29.70;65.20;;;;;;5093065;28;20465;-79
2022/08/01 12:52:11;;;;;;;4.82;0.85;;;29.90;66.20;;;;;;5093097;28;20044;-79
2022/08/01 12:55:06;;;;;;;1.35;0.80;;;30.00;64.60;;;;;;5092584;28;20027;-79
2022/08/01 12:57:32;;;;;;;6.68;1.42;;;30.20;66.10;;;;;;5092522;28;20607;-78